DLH1PX EDDV-EDDM
Flight info
| Callsign | DLH1PX |
|---|---|
| Flight time | N/A |
| Altitude | 31000 |
| Route | POVEL3H/09R POVEL Z94 GALMA T703 LULAR/N0468F300 T105 LANDU LANDU2A |
| Aircraft | A320/M-SDE3FGHIRWY/LB1 |
Departure
| Time | N/A |
|---|---|
| Airport | Hannover Airport (EDDV) |
Arrival
| Time | 2026-05-01 13:32 |
|---|---|
| Airport | Munich Airport (EDDM) |
| Time | Latitude | Longitude | Altitude | Speed | Heading |
|---|---|---|---|---|---|
| 2026-05-01 13:01 | 50.67136 | 11.72043 | 31381 ft | 466 kts | 160° |
| 2026-05-01 13:01 | 50.64060 | 11.73646 | 31384 ft | 466 kts | 160° |
| 2026-05-01 13:02 | 50.54806 | 11.78424 | 31391 ft | 467 kts | 160° |
| 2026-05-01 13:07 | 49.89851 | 12.20713 | 31384 ft | 469 kts | 155° |
| 2026-05-01 13:08 | 49.83849 | 12.24679 | 31385 ft | 469 kts | 155° |
| 2026-05-01 13:08 | 49.77831 | 12.28650 | 31391 ft | 470 kts | 155° |
| 2026-05-01 13:09 | 49.71921 | 12.32935 | 31391 ft | 467 kts | 146° |
| 2026-05-01 13:09 | 49.66688 | 12.38835 | 31386 ft | 465 kts | 140° |
| 2026-05-01 13:10 | 49.61533 | 12.44866 | 31386 ft | 466 kts | 140° |
| 2026-05-01 13:10 | 49.56352 | 12.50886 | 31384 ft | 466 kts | 140° |
| 2026-05-01 13:11 | 49.51173 | 12.56892 | 31381 ft | 466 kts | 140° |
| 2026-05-01 13:11 | 49.45981 | 12.62890 | 31378 ft | 467 kts | 140° |
| 2026-05-01 13:12 | 49.40606 | 12.68505 | 31378 ft | 471 kts | 152° |
| 2026-05-01 13:12 | 49.37534 | 12.70292 | 31378 ft | 475 kts | 163° |
| 2026-05-01 13:12 | 49.34270 | 12.71082 | 31376 ft | 478 kts | 176° |
| 2026-05-01 13:12 | 49.30940 | 12.70812 | 31332 ft | 481 kts | 188° |
| 2026-05-01 13:13 | 49.27702 | 12.69509 | 31085 ft | 483 kts | 200° |
| 2026-05-01 13:13 | 49.24614 | 12.67442 | 30103 ft | 488 kts | 204° |
| 2026-05-01 13:13 | 49.21513 | 12.65249 | 28637 ft | 490 kts | 205° |
| 2026-05-01 13:13 | 49.18485 | 12.63073 | 27278 ft | 484 kts | 205° |
| 2026-05-01 13:14 | 49.15463 | 12.60879 | 25999 ft | 477 kts | 205° |
| 2026-05-01 13:14 | 49.12493 | 12.58722 | 24791 ft | 470 kts | 204° |
| 2026-05-01 13:14 | 49.09548 | 12.56593 | 23703 ft | 467 kts | 204° |
| 2026-05-01 13:14 | 49.06618 | 12.54493 | 22778 ft | 463 kts | 204° |
| 2026-05-01 13:15 | 49.03718 | 12.52429 | 21968 ft | 457 kts | 204° |
| 2026-05-01 13:15 | 49.00842 | 12.50386 | 21156 ft | 452 kts | 203° |
| 2026-05-01 13:15 | 48.98010 | 12.48368 | 20356 ft | 446 kts | 203° |
| 2026-05-01 13:15 | 48.95216 | 12.46371 | 19584 ft | 441 kts | 203° |
| 2026-05-01 13:16 | 48.92448 | 12.44392 | 18821 ft | 436 kts | 203° |
| 2026-05-01 13:16 | 48.89712 | 12.42441 | 18003 ft | 431 kts | 203° |
| 2026-05-01 13:16 | 48.87021 | 12.40526 | 17294 ft | 426 kts | 203° |
| 2026-05-01 13:17 | 48.79044 | 12.35004 | 15229 ft | 412 kts | 197° |
| 2026-05-01 13:17 | 48.76307 | 12.33811 | 14609 ft | 409 kts | 191° |
| 2026-05-01 13:18 | 48.70890 | 12.31729 | 14012 ft | 388 kts | 192° |
| 2026-05-01 13:18 | 48.68325 | 12.30731 | 13873 ft | 374 kts | 192° |
| 2026-05-01 13:18 | 48.65842 | 12.29765 | 13712 ft | 362 kts | 192° |
| 2026-05-01 13:18 | 48.63507 | 12.28409 | 13397 ft | 359 kts | 208° |
| 2026-05-01 13:19 | 48.61548 | 12.26100 | 13125 ft | 358 kts | 226° |
| 2026-05-01 13:19 | 48.60136 | 12.23023 | 12874 ft | 356 kts | 245° |
| 2026-05-01 13:19 | 48.59211 | 12.15841 | 12367 ft | 352 kts | 268° |
| 2026-05-01 13:20 | 48.59079 | 12.12159 | 12112 ft | 350 kts | 268° |
| 2026-05-01 13:20 | 48.58949 | 12.08494 | 11947 ft | 349 kts | 268° |
| 2026-05-01 13:20 | 48.58816 | 12.04832 | 11689 ft | 348 kts | 268° |
| 2026-05-01 13:21 | 48.58540 | 11.97565 | 11119 ft | 345 kts | 268° |
| 2026-05-01 13:21 | 48.58399 | 11.93962 | 10838 ft | 343 kts | 267° |
| 2026-05-01 13:21 | 48.58258 | 11.90416 | 10669 ft | 332 kts | 267° |
| 2026-05-01 13:21 | 48.58122 | 11.86993 | 10542 ft | 321 kts | 267° |
| 2026-05-01 13:22 | 48.57994 | 11.83679 | 10401 ft | 312 kts | 267° |
| 2026-05-01 13:22 | 48.57868 | 11.80432 | 10171 ft | 307 kts | 267° |
| 2026-05-01 13:22 | 48.57742 | 11.77225 | 9962 ft | 305 kts | 267° |
| 2026-05-01 13:22 | 48.57614 | 11.74036 | 9704 ft | 303 kts | 266° |
| 2026-05-01 13:23 | 48.57484 | 11.70861 | 9475 ft | 302 kts | 266° |
| 2026-05-01 13:23 | 48.57354 | 11.67706 | 9234 ft | 301 kts | 266° |
| 2026-05-01 13:23 | 48.57224 | 11.64550 | 8997 ft | 300 kts | 266° |
| 2026-05-01 13:23 | 48.56988 | 11.61437 | 8757 ft | 298 kts | 255° |
| 2026-05-01 13:24 | 48.56267 | 11.58519 | 8517 ft | 295 kts | 240° |
| 2026-05-01 13:24 | 48.55115 | 11.55978 | 8286 ft | 293 kts | 230° |
| 2026-05-01 13:24 | 48.53722 | 11.53794 | 7919 ft | 287 kts | 214° |
| 2026-05-01 13:25 | 48.50471 | 11.50441 | 7261 ft | 281 kts | 210° |
| 2026-05-01 13:25 | 48.48833 | 11.48860 | 6949 ft | 278 kts | 207° |
| 2026-05-01 13:25 | 48.47167 | 11.47403 | 6596 ft | 276 kts | 205° |
| 2026-05-01 13:25 | 48.45448 | 11.46179 | 6221 ft | 271 kts | 193° |
| 2026-05-01 13:26 | 48.43623 | 11.45964 | 5985 ft | 258 kts | 171° |
| 2026-05-01 13:26 | 48.41875 | 11.46287 | 5854 ft | 247 kts | 169° |
| 2026-05-01 13:26 | 48.40206 | 11.46661 | 5725 ft | 238 kts | 168° |
| 2026-05-01 13:26 | 48.38598 | 11.47054 | 5608 ft | 231 kts | 167° |
| 2026-05-01 13:27 | 48.37115 | 11.47713 | 5431 ft | 215 kts | 151° |
| 2026-05-01 13:27 | 48.35898 | 11.48975 | 5067 ft | 209 kts | 133° |
| 2026-05-01 13:27 | 48.34611 | 11.52500 | 4668 ft | 184 kts | 101° |
| 2026-05-01 13:28 | 48.34667 | 11.56234 | 4206 ft | 177 kts | 84° |
| 2026-05-01 13:28 | 48.34811 | 11.58058 | 3968 ft | 176 kts | 83° |
| 2026-05-01 13:29 | 48.35096 | 11.61672 | 3528 ft | 168 kts | 84° |
| 2026-05-01 13:29 | 48.35345 | 11.64841 | 3099 ft | 141 kts | 84° |
| 2026-05-01 13:30 | 48.35791 | 11.70521 | 2405 ft | 137 kts | 85° |
| 2026-05-01 13:31 | 48.35976 | 11.73290 | 1958 ft | 136 kts | 78° |
| 2026-05-01 13:31 | 48.36324 | 11.77365 | 1481 ft | 123 kts | 83° |
| 2026-05-01 13:32 | 48.36457 | 11.79135 | 1471 ft | 40 kts | 89° |
| 2026-05-01 13:33 | 48.36290 | 11.79787 | 1465 ft | 10 kts | 135° |
| 2026-05-01 13:33 | 48.36264 | 11.79820 | 1468 ft | 2 kts | 154° |
| 2026-05-01 13:34 | 48.36229 | 11.79681 | 1471 ft | 9 kts | 264° |
| 2026-05-01 13:34 | 48.36218 | 11.79514 | 1471 ft | 7 kts | 264° |
| 2026-05-01 13:35 | 48.36175 | 11.79478 | 1471 ft | 7 kts | 179° |
| 2026-05-01 13:35 | 48.36095 | 11.79481 | 1467 ft | 10 kts | 176° |
| 2026-05-01 13:35 | 48.36000 | 11.79495 | 1463 ft | 4 kts | 174° |
| 2026-05-01 13:36 | 48.35976 | 11.79499 | 1467 ft | 3 kts | 174° |
| 2026-05-01 13:36 | 48.35947 | 11.79503 | 1463 ft | 9 kts | 174° |
| 2026-05-01 13:36 | 48.35806 | 11.79695 | 1465 ft | 19 kts | 82° |
| 2026-05-01 13:37 | 48.35822 | 11.79897 | 1471 ft | 20 kts | 83° |
| 2026-05-01 13:37 | 48.35782 | 11.80064 | 1468 ft | 18 kts | 161° |
| 2026-05-01 13:37 | 48.35654 | 11.80097 | 1469 ft | 19 kts | 172° |
| 2026-05-01 13:37 | 48.35514 | 11.80122 | 1464 ft | 21 kts | 173° |
| 2026-05-01 13:38 | 48.35426 | 11.80073 | 1464 ft | 5 kts | 279° |
| 2026-05-01 13:38 | 48.35425 | 11.80027 | 1467 ft | 4 kts | 264° |
| 2026-05-01 13:38 | 48.35424 | 11.80016 | 1469 ft | 0 kts | 263° |